sensor_id;sensor_type;location;lat;lon;timestamp;temperature;humidity
40291;DHT22;26000;48.304;13.626;2023-03-11T00:01:50;6.80;99.90
40291;DHT22;26000;48.304;13.626;2023-03-11T00:04:16;6.80;99.90
40291;DHT22;26000;48.304;13.626;2023-03-11T00:06:41;6.60;99.90
40291;DHT22;26000;48.304;13.626;2023-03-11T00:09:07;6.50;99.90
40291;DHT22;26000;48.304;13.626;2023-03-11T00:11:33;6.40;99.90
40291;DHT22;26000;48.304;13.626;2023-03-11T00:13:59;6.40;99.90
40291;DHT22;26000;48.304;13.626;2023-03-11T00:16:25;6.30;99.90
40291;DHT22;26000;48.304;13.626;2023-03-11T00:18:51;6.20;99.90
40291;DHT22;26000;48.304;13.626;2023-03-11T00:21:18;6.00;99.90
40291;DHT22;26000;48.304;13.626;2023-03-11T00:23:45;6.00;99.90
40291;DHT22;26000;48.304;13.626;2023-03-11T00:26:11;5.70;99.90
40291;DHT22;26000;48.304;13.626;2023-03-11T00:28:37;5.60;99.90
40291;DHT22;26000;48.304;13.626;2023-03-11T00:31:02;5.50;99.90
40291;DHT22;26000;48.304;13.626;2023-03-11T00:33:28;5.50;99.90
40291;DHT22;26000;48.304;13.626;2023-03-11T00:35:54;5.60;99.90
40291;DHT22;26000;48.304;13.626;2023-03-11T00:38:20;5.60;99.90
40291;DHT22;26000;48.304;13.626;2023-03-11T00:40:47;5.50;99.90
40291;DHT22;26000;48.304;13.626;2023-03-11T00:43:13;5.50;99.90
40291;DHT22;26000;48.304;13.626;2023-03-11T00:45:39;5.50;99.90
40291;DHT22;26000;48.304;13.626;2023-03-11T00:48:05;5.40;99.90
40291;DHT22;26000;48.304;13.626;2023-03-11T00:50:34;5.40;99.90
40291;DHT22;26000;48.304;13.626;2023-03-11T00:53:00;5.40;99.90
40291;DHT22;26000;48.304;13.626;2023-03-11T00:55:29;5.30;99.90
40291;DHT22;26000;48.304;13.626;2023-03-11T00:57:57;5.30;99.90
40291;DHT22;26000;48.304;13.626;2023-03-11T01:00:25;5.20;99.90
40291;DHT22;26000;48.304;13.626;2023-03-11T01:02:52;5.20;99.90
40291;DHT22;26000;48.304;13.626;2023-03-11T01:05:24;5.20;99.90
40291;DHT22;26000;48.304;13.626;2023-03-11T01:07:50;5.20;99.90
40291;DHT22;26000;48.304;13.626;2023-03-11T01:10:16;5.20;99.90
40291;DHT22;26000;48.304;13.626;2023-03-11T01:12:41;5.20;99.90
40291;DHT22;26000;48.304;13.626;2023-03-11T01:15:09;5.10;99.90
40291;DHT22;26000;48.304;13.626;2023-03-11T01:17:39;5.10;99.90
40291;DHT22;26000;48.304;13.626;2023-03-11T01:20:05;5.20;99.90
40291;DHT22;26000;48.304;13.626;2023-03-11T01:22:32;5.20;99.90
40291;DHT22;26000;48.304;13.626;2023-03-11T01:24:58;5.20;99.90
40291;DHT22;26000;48.304;13.626;2023-03-11T01:27:24;5.10;99.90
40291;DHT22;26000;48.304;13.626;2023-03-11T01:29:49;5.00;99.90
40291;DHT22;26000;48.304;13.626;2023-03-11T01:32:15;5.00;99.90
40291;DHT22;26000;48.304;13.626;2023-03-11T01:34:41;5.00;99.90
40291;DHT22;26000;48.304;13.626;2023-03-11T01:37:06;5.00;99.90
40291;DHT22;26000;48.304;13.626;2023-03-11T01:39:32;5.00;99.90
40291;DHT22;26000;48.304;13.626;2023-03-11T01:41:58;4.90;99.90
40291;DHT22;26000;48.304;13.626;2023-03-11T01:44:23;4.80;99.90
40291;DHT22;26000;48.304;13.626;2023-03-11T01:49:21;4.70;99.90
40291;DHT22;26000;48.304;13.626;2023-03-11T01:51:49;4.70;99.90
40291;DHT22;26000;48.304;13.626;2023-03-11T01:54:42;4.70;99.90
40291;DHT22;26000;48.304;13.626;2023-03-11T01:57:11;4.60;99.90
40291;DHT22;26000;48.304;13.626;2023-03-11T01:59:41;4.60;99.90
40291;DHT22;26000;48.304;13.626;2023-03-11T02:04:56;4.60;99.90
40291;DHT22;26000;48.304;13.626;2023-03-11T02:07:23;4.50;99.90
40291;DHT22;26000;48.304;13.626;2023-03-11T02:09:49;4.50;99.20
40291;DHT22;26000;48.304;13.626;2023-03-11T02:12:16;4.40;99.20
40291;DHT22;26000;48.304;13.626;2023-03-11T02:14:47;4.40;99.20
40291;DHT22;26000;48.304;13.626;2023-03-11T02:17:13;4.40;99.60
40291;DHT22;26000;48.304;13.626;2023-03-11T02:20:18;4.30;99.40
40291;DHT22;26000;48.304;13.626;2023-03-11T02:22:45;4.30;99.70
40291;DHT22;26000;48.304;13.626;2023-03-11T02:25:26;4.30;99.70
40291;DHT22;26000;48.304;13.626;2023-03-11T02:27:54;4.20;99.80
40291;DHT22;26000;48.304;13.626;2023-03-11T02:30:22;4.20;99.90
40291;DHT22;26000;48.304;13.626;2023-03-11T02:32:49;4.20;99.80
40291;DHT22;26000;48.304;13.626;2023-03-11T02:35:16;4.30;99.70
40291;DHT22;26000;48.304;13.626;2023-03-11T02:37:50;4.30;99.90
40291;DHT22;26000;48.304;13.626;2023-03-11T02:42:50;4.30;99.60
40291;DHT22;26000;48.304;13.626;2023-03-11T02:45:17;4.20;99.50
40291;DHT22;26000;48.304;13.626;2023-03-11T02:47:45;4.20;99.70
40291;DHT22;26000;48.304;13.626;2023-03-11T02:50:13;4.20;99.80
40291;DHT22;26000;48.304;13.626;2023-03-11T02:52:39;4.20;99.70
40291;DHT22;26000;48.304;13.626;2023-03-11T02:55:05;4.10;99.80
40291;DHT22;26000;48.304;13.626;2023-03-11T02:57:31;4.10;99.60
40291;DHT22;26000;48.304;13.626;2023-03-11T02:59:57;4.10;99.60
40291;DHT22;26000;48.304;13.626;2023-03-11T03:02:24;4.20;99.80
40291;DHT22;26000;48.304;13.626;2023-03-11T03:04:50;4.20;99.60
40291;DHT22;26000;48.304;13.626;2023-03-11T03:07:15;4.30;99.80
40291;DHT22;26000;48.304;13.626;2023-03-11T03:09:41;4.10;99.90
40291;DHT22;26000;48.304;13.626;2023-03-11T03:12:06;4.10;99.90
40291;DHT22;26000;48.304;13.626;2023-03-11T03:14:32;4.20;99.80
40291;DHT22;26000;48.304;13.626;2023-03-11T03:16:58;4.20;99.90
40291;DHT22;26000;48.304;13.626;2023-03-11T03:19:23;4.10;99.90
40291;DHT22;26000;48.304;13.626;2023-03-11T03:21:49;4.20;99.90
40291;DHT22;26000;48.304;13.626;2023-03-11T03:24:14;4.20;99.90
40291;DHT22;26000;48.304;13.626;2023-03-11T03:26:40;4.20;99.90
40291;DHT22;26000;48.304;13.626;2023-03-11T03:29:06;4.20;99.90
40291;DHT22;26000;48.304;13.626;2023-03-11T03:31:31;4.10;99.90
40291;DHT22;26000;48.304;13.626;2023-03-11T03:33:57;4.00;99.90
40291;DHT22;26000;48.304;13.626;2023-03-11T03:36:23;4.00;99.90
40291;DHT22;26000;48.304;13.626;2023-03-11T03:38:53;4.00;99.90
40291;DHT22;26000;48.304;13.626;2023-03-11T03:41:19;4.00;99.90
40291;DHT22;26000;48.304;13.626;2023-03-11T03:43:45;4.00;99.90
40291;DHT22;26000;48.304;13.626;2023-03-11T03:46:11;4.00;99.90
40291;DHT22;26000;48.304;13.626;2023-03-11T03:48:37;4.00;99.90
40291;DHT22;26000;48.304;13.626;2023-03-11T03:51:07;3.90;99.90
40291;DHT22;26000;48.304;13.626;2023-03-11T03:53:34;4.00;99.90
40291;DHT22;26000;48.304;13.626;2023-03-11T03:56:17;4.00;99.90
40291;DHT22;26000;48.304;13.626;2023-03-11T03:58:43;4.00;99.90
40291;DHT22;26000;48.304;13.626;2023-03-11T04:01:12;4.00;99.90
40291;DHT22;26000;48.304;13.626;2023-03-11T04:03:37;4.00;99.90
40291;DHT22;26000;48.304;13.626;2023-03-11T04:06:15;4.00;99.90
40291;DHT22;26000;48.304;13.626;2023-03-11T04:08:41;4.00;99.90
40291;DHT22;26000;48.304;13.626;2023-03-11T04:11:07;4.10;99.90
40291;DHT22;26000;48.304;13.626;2023-03-11T04:13:33;4.10;99.90
40291;DHT22;26000;48.304;13.626;2023-03-11T04:15:59;4.00;99.90
40291;DHT22;26000;48.304;13.626;2023-03-11T04:18:26;4.10;99.90
40291;DHT22;26000;48.304;13.626;2023-03-11T04:20:52;4.10;99.90
40291;DHT22;26000;48.304;13.626;2023-03-11T04:23:18;4.10;99.90
40291;DHT22;26000;48.304;13.626;2023-03-11T04:25:43;4.20;99.90
40291;DHT22;26000;48.304;13.626;2023-03-11T04:28:09;4.20;99.90
40291;DHT22;26000;48.304;13.626;2023-03-11T04:30:34;4.20;99.90
40291;DHT22;26000;48.304;13.626;2023-03-11T04:33:00;4.00;99.90
40291;DHT22;26000;48.304;13.626;2023-03-11T04:35:26;4.10;99.90
40291;DHT22;26000;48.304;13.626;2023-03-11T04:37:51;4.00;99.90
40291;DHT22;26000;48.304;13.626;2023-03-11T04:40:17;4.00;99.90
40291;DHT22;26000;48.304;13.626;2023-03-11T04:42:42;3.90;99.90
40291;DHT22;26000;48.304;13.626;2023-03-11T04:45:09;3.90;99.90
40291;DHT22;26000;48.304;13.626;2023-03-11T04:47:35;4.00;99.90
40291;DHT22;26000;48.304;13.626;2023-03-11T04:50:01;4.00;99.90
40291;DHT22;26000;48.304;13.626;2023-03-11T04:52:27;4.10;99.90
40291;DHT22;26000;48.304;13.626;2023-03-11T04:54:52;4.00;99.90
40291;DHT22;26000;48.304;13.626;2023-03-11T04:57:18;4.00;99.90
40291;DHT22;26000;48.304;13.626;2023-03-11T04:59:43;4.00;99.90
40291;DHT22;26000;48.304;13.626;2023-03-11T05:02:09;4.00;99.90
40291;DHT22;26000;48.304;13.626;2023-03-11T05:04:35;4.00;99.90
40291;DHT22;26000;48.304;13.626;2023-03-11T05:07:00;4.00;99.90
40291;DHT22;26000;48.304;13.626;2023-03-11T05:09:26;4.00;99.90
40291;DHT22;26000;48.304;13.626;2023-03-11T05:11:52;4.10;99.90
40291;DHT22;26000;48.304;13.626;2023-03-11T05:14:17;4.10;99.90
40291;DHT22;26000;48.304;13.626;2023-03-11T05:16:43;4.10;99.90
40291;DHT22;26000;48.304;13.626;2023-03-11T05:19:08;4.10;99.90
40291;DHT22;26000;48.304;13.626;2023-03-11T05:21:55;4.00;99.90
40291;DHT22;26000;48.304;13.626;2023-03-11T05:24:21;4.00;99.90
40291;DHT22;26000;48.304;13.626;2023-03-11T05:26:47;4.10;99.90
40291;DHT22;26000;48.304;13.626;2023-03-11T05:29:13;4.10;99.90
40291;DHT22;26000;48.304;13.626;2023-03-11T05:31:38;4.20;99.90
40291;DHT22;26000;48.304;13.626;2023-03-11T05:34:04;4.10;99.90
40291;DHT22;26000;48.304;13.626;2023-03-11T05:36:30;4.00;99.90
40291;DHT22;26000;48.304;13.626;2023-03-11T05:38:55;4.00;99.90
40291;DHT22;26000;48.304;13.626;2023-03-11T05:41:21;4.00;99.90
40291;DHT22;26000;48.304;13.626;2023-03-11T05:43:46;4.00;99.90
40291;DHT22;26000;48.304;13.626;2023-03-11T05:46:12;4.10;99.90
40291;DHT22;26000;48.304;13.626;2023-03-11T05:48:37;4.10;99.90
40291;DHT22;26000;48.304;13.626;2023-03-11T05:51:07;4.10;99.90
40291;DHT22;26000;48.304;13.626;2023-03-11T05:53:33;4.10;99.90
40291;DHT22;26000;48.304;13.626;2023-03-11T05:56:00;4.20;99.90
40291;DHT22;26000;48.304;13.626;2023-03-11T05:58:30;4.20;99.90
40291;DHT22;26000;48.304;13.626;2023-03-11T06:00:56;4.30;99.90
40291;DHT22;26000;48.304;13.626;2023-03-11T06:03:23;4.30;99.90
40291;DHT22;26000;48.304;13.626;2023-03-11T06:05:49;4.40;99.90
40291;DHT22;26000;48.304;13.626;2023-03-11T06:08:16;4.40;99.90
40291;DHT22;26000;48.304;13.626;2023-03-11T06:10:42;4.40;99.90
40291;DHT22;26000;48.304;13.626;2023-03-11T06:13:08;4.40;99.90
40291;DHT22;26000;48.304;13.626;2023-03-11T06:15:36;4.50;99.90
40291;DHT22;26000;48.304;13.626;2023-03-11T06:18:02;4.50;99.90
40291;DHT22;26000;48.304;13.626;2023-03-11T06:20:29;4.80;99.90
40291;DHT22;26000;48.304;13.626;2023-03-11T06:22:55;5.10;99.90
40291;DHT22;26000;48.304;13.626;2023-03-11T06:25:20;5.20;99.90
40291;DHT22;26000;48.304;13.626;2023-03-11T06:27:51;5.70;99.90
40291;DHT22;26000;48.304;13.626;2023-03-11T06:30:18;6.90;99.90
40291;DHT22;26000;48.304;13.626;2023-03-11T06:32:45;8.00;99.90
40291;DHT22;26000;48.304;13.626;2023-03-11T06:35:12;8.90;98.90
40291;DHT22;26000;48.304;13.626;2023-03-11T06:37:38;9.30;97.20
40291;DHT22;26000;48.304;13.626;2023-03-11T06:40:05;9.50;96.20
40291;DHT22;26000;48.304;13.626;2023-03-11T06:42:32;9.40;95.60
40291;DHT22;26000;48.304;13.626;2023-03-11T06:44:58;9.10;95.60
40291;DHT22;26000;48.304;13.626;2023-03-11T06:47:24;8.80;96.00
40291;DHT22;26000;48.304;13.626;2023-03-11T06:49:50;8.40;96.00
40291;DHT22;26000;48.304;13.626;2023-03-11T06:52:16;8.50;96.40
40291;DHT22;26000;48.304;13.626;2023-03-11T06:54:42;8.40;96.20
40291;DHT22;26000;48.304;13.626;2023-03-11T06:57:08;8.40;97.10
40291;DHT22;26000;48.304;13.626;2023-03-11T06:59:35;8.30;94.70
40291;DHT22;26000;48.304;13.626;2023-03-11T07:02:01;8.30;94.20
40291;DHT22;26000;48.304;13.626;2023-03-11T07:04:28;7.70;94.10
40291;DHT22;26000;48.304;13.626;2023-03-11T07:06:54;7.40;95.00
40291;DHT22;26000;48.304;13.626;2023-03-11T07:09:20;7.40;94.70
40291;DHT22;26000;48.304;13.626;2023-03-11T07:11:47;7.70;94.40
40291;DHT22;26000;48.304;13.626;2023-03-11T07:14:13;7.80;94.70
40291;DHT22;26000;48.304;13.626;2023-03-11T07:16:39;7.70;93.90
40291;DHT22;26000;48.304;13.626;2023-03-11T07:19:05;7.50;94.00
40291;DHT22;26000;48.304;13.626;2023-03-11T07:21:31;7.50;95.00
40291;DHT22;26000;48.304;13.626;2023-03-11T07:23:59;7.60;94.00
40291;DHT22;26000;48.304;13.626;2023-03-11T07:26:26;7.80;93.60
40291;DHT22;26000;48.304;13.626;2023-03-11T07:28:53;8.10;93.80
40291;DHT22;26000;48.304;13.626;2023-03-11T07:31:22;8.30;93.30
40291;DHT22;26000;48.304;13.626;2023-03-11T07:33:48;8.70;92.80
40291;DHT22;26000;48.304;13.626;2023-03-11T07:36:17;8.70;91.20
40291;DHT22;26000;48.304;13.626;2023-03-11T07:38:43;8.40;91.00
40291;DHT22;26000;48.304;13.626;2023-03-11T07:41:10;8.30;91.70
40291;DHT22;26000;48.304;13.626;2023-03-11T07:43:37;8.40;92.10
40291;DHT22;26000;48.304;13.626;2023-03-11T07:46:11;8.40;91.90
40291;DHT22;26000;48.304;13.626;2023-03-11T07:48:38;8.30;91.30
40291;DHT22;26000;48.304;13.626;2023-03-11T07:51:06;8.50;91.70
40291;DHT22;26000;48.304;13.626;2023-03-11T07:53:33;8.40;91.80
40291;DHT22;26000;48.304;13.626;2023-03-11T07:55:59;8.20;92.00
40291;DHT22;26000;48.304;13.626;2023-03-11T07:58:26;8.00;92.20
40291;DHT22;26000;48.304;13.626;2023-03-11T08:00:52;7.80;92.40
40291;DHT22;26000;48.304;13.626;2023-03-11T08:03:19;7.70;92.50
40291;DHT22;26000;48.304;13.626;2023-03-11T08:05:45;7.60;93.40
40291;DHT22;26000;48.304;13.626;2023-03-11T08:08:10;8.00;93.50
40291;DHT22;26000;48.304;13.626;2023-03-11T08:10:37;8.20;92.50
40291;DHT22;26000;48.304;13.626;2023-03-11T08:13:03;8.30;93.40
40291;DHT22;26000;48.304;13.626;2023-03-11T08:15:28;8.20;93.00
40291;DHT22;26000;48.304;13.626;2023-03-11T08:17:54;8.30;93.40
40291;DHT22;26000;48.304;13.626;2023-03-11T08:20:20;8.30;92.90
40291;DHT22;26000;48.304;13.626;2023-03-11T08:22:45;8.00;93.60
40291;DHT22;26000;48.304;13.626;2023-03-11T08:25:11;7.70;93.60
40291;DHT22;26000;48.304;13.626;2023-03-11T08:27:36;7.60;94.40
40291;DHT22;26000;48.304;13.626;2023-03-11T08:30:03;7.50;94.20
40291;DHT22;26000;48.304;13.626;2023-03-11T08:32:29;7.70;94.50
40291;DHT22;26000;48.304;13.626;2023-03-11T08:34:56;7.60;94.40
40291;DHT22;26000;48.304;13.626;2023-03-11T08:37:22;7.50;94.20
40291;DHT22;26000;48.304;13.626;2023-03-11T08:39:47;7.40;94.30
40291;DHT22;26000;48.304;13.626;2023-03-11T08:42:14;7.40;94.70
40291;DHT22;26000;48.304;13.626;2023-03-11T08:44:39;7.30;95.40
40291;DHT22;26000;48.304;13.626;2023-03-11T08:47:05;7.50;95.30
40291;DHT22;26000;48.304;13.626;2023-03-11T08:49:30;7.60;94.90
40291;DHT22;26000;48.304;13.626;2023-03-11T08:51:56;7.60;95.40
40291;DHT22;26000;48.304;13.626;2023-03-11T08:54:21;7.50;94.80
40291;DHT22;26000;48.304;13.626;2023-03-11T08:56:47;7.40;94.60
40291;DHT22;26000;48.304;13.626;2023-03-11T08:59:13;7.00;95.00
40291;DHT22;26000;48.304;13.626;2023-03-11T09:01:39;6.90;94.80
40291;DHT22;26000;48.304;13.626;2023-03-11T09:04:04;6.80;95.80
40291;DHT22;26000;48.304;13.626;2023-03-11T09:06:30;6.60;95.60
40291;DHT22;26000;48.304;13.626;2023-03-11T09:08:56;6.50;95.70
40291;DHT22;26000;48.304;13.626;2023-03-11T09:11:22;6.50;96.30
40291;DHT22;26000;48.304;13.626;2023-03-11T09:13:48;6.70;96.50
40291;DHT22;26000;48.304;13.626;2023-03-11T09:16:19;7.10;96.50
40291;DHT22;26000;48.304;13.626;2023-03-11T09:18:45;7.40;96.30
40291;DHT22;26000;48.304;13.626;2023-03-11T09:21:11;7.80;95.70
40291;DHT22;26000;48.304;13.626;2023-03-11T09:23:37;8.00;95.50
40291;DHT22;26000;48.304;13.626;2023-03-11T09:26:03;8.20;94.80
40291;DHT22;26000;48.304;13.626;2023-03-11T09:28:29;8.30;94.20
40291;DHT22;26000;48.304;13.626;2023-03-11T09:30:55;8.20;94.90
40291;DHT22;26000;48.304;13.626;2023-03-11T09:33:21;8.40;94.50
40291;DHT22;26000;48.304;13.626;2023-03-11T09:35:46;8.50;94.20
40291;DHT22;26000;48.304;13.626;2023-03-11T09:38:13;8.50;94.40
40291;DHT22;26000;48.304;13.626;2023-03-11T09:51:39;8.20;93.90
40291;DHT22;26000;48.304;13.626;2023-03-11T09:54:10;8.10;93.30
40291;DHT22;26000;48.304;13.626;2023-03-11T09:56:37;7.90;93.80
40291;DHT22;26000;48.304;13.626;2023-03-11T09:59:07;8.00;94.00
40291;DHT22;26000;48.304;13.626;2023-03-11T10:01:36;8.10;93.80
40291;DHT22;26000;48.304;13.626;2023-03-11T10:06:35;8.60;93.60
40291;DHT22;26000;48.304;13.626;2023-03-11T10:17:38;9.60;92.60
40291;DHT22;26000;48.304;13.626;2023-03-11T10:25:17;9.20;91.00
40291;DHT22;26000;48.304;13.626;2023-03-11T10:27:48;8.90;91.50
40291;DHT22;26000;48.304;13.626;2023-03-11T10:30:29;8.60;91.50
40291;DHT22;26000;48.304;13.626;2023-03-11T10:35:41;8.10;92.50
40291;DHT22;26000;48.304;13.626;2023-03-11T10:40:47;8.30;92.30
40291;DHT22;26000;48.304;13.626;2023-03-11T10:43:24;8.20;91.60
40291;DHT22;26000;48.304;13.626;2023-03-11T10:45:52;8.10;91.30
40291;DHT22;26000;48.304;13.626;2023-03-11T10:48:19;7.90;91.20
40291;DHT22;26000;48.304;13.626;2023-03-11T10:53:24;7.90;91.80
40291;DHT22;26000;48.304;13.626;2023-03-11T10:55:51;7.80;91.60
40291;DHT22;26000;48.304;13.626;2023-03-11T10:58:24;7.80;91.90
40291;DHT22;26000;48.304;13.626;2023-03-11T11:03:25;7.50;92.80
40291;DHT22;26000;48.304;13.626;2023-03-11T11:06:05;7.40;92.50
40291;DHT22;26000;48.304;13.626;2023-03-11T11:08:32;7.30;92.90
40291;DHT22;26000;48.304;13.626;2023-03-11T11:11:02;7.30;93.80
40291;DHT22;26000;48.304;13.626;2023-03-11T11:13:33;7.40;93.20
40291;DHT22;26000;48.304;13.626;2023-03-11T11:16:18;7.50;92.70
40291;DHT22;26000;48.304;13.626;2023-03-11T11:18:57;7.60;93.70
40291;DHT22;26000;48.304;13.626;2023-03-11T11:21:33;7.50;93.00
40291;DHT22;26000;48.304;13.626;2023-03-11T11:26:25;7.00;93.20
40291;DHT22;26000;48.304;13.626;2023-03-11T11:31:45;6.90;93.50
40291;DHT22;26000;48.304;13.626;2023-03-11T11:34:27;7.00;93.50
40291;DHT22;26000;48.304;13.626;2023-03-11T11:36:55;7.00;93.50
40291;DHT22;26000;48.304;13.626;2023-03-11T11:39:22;7.00;93.80
40291;DHT22;26000;48.304;13.626;2023-03-11T11:41:49;7.00;93.70
40291;DHT22;26000;48.304;13.626;2023-03-11T11:44:18;6.90;94.70
40291;DHT22;26000;48.304;13.626;2023-03-11T11:46:56;6.80;94.90
40291;DHT22;26000;48.304;13.626;2023-03-11T11:49:30;6.60;95.20
40291;DHT22;26000;48.304;13.626;2023-03-11T11:52:05;6.50;96.10
40291;DHT22;26000;48.304;13.626;2023-03-11T11:57:15;6.40;96.40
40291;DHT22;26000;48.304;13.626;2023-03-11T11:59:42;6.40;97.20
40291;DHT22;26000;48.304;13.626;2023-03-11T12:05:14;6.30;96.90
40291;DHT22;26000;48.304;13.626;2023-03-11T12:11:26;6.00;96.90
40291;DHT22;26000;48.304;13.626;2023-03-11T12:13:58;5.90;96.80
40291;DHT22;26000;48.304;13.626;2023-03-11T12:16:50;5.90;97.10
40291;DHT22;26000;48.304;13.626;2023-03-11T12:19:43;6.00;97.00
40291;DHT22;26000;48.304;13.626;2023-03-11T12:27:46;6.10;97.10
40291;DHT22;26000;48.304;13.626;2023-03-11T12:33:02;6.20;97.40
40291;DHT22;26000;48.304;13.626;2023-03-11T12:35:33;6.40;97.40
40291;DHT22;26000;48.304;13.626;2023-03-11T12:53:52;5.90;96.20
40291;DHT22;26000;48.304;13.626;2023-03-11T12:56:39;6.00;96.90
40291;DHT22;26000;48.304;13.626;2023-03-11T13:02:45;6.20;96.90
40291;DHT22;26000;48.304;13.626;2023-03-11T13:05:42;6.30;97.30
40291;DHT22;26000;48.304;13.626;2023-03-11T13:08:19;6.30;97.10
40291;DHT22;26000;48.304;13.626;2023-03-11T13:10:47;6.30;96.40
40291;DHT22;26000;48.304;13.626;2023-03-11T13:18:45;6.20;97.20
40291;DHT22;26000;48.304;13.626;2023-03-11T13:26:50;6.10;97.10
40291;DHT22;26000;48.304;13.626;2023-03-11T13:40:45;6.30;97.10
40291;DHT22;26000;48.304;13.626;2023-03-11T13:43:15;6.30;97.00
40291;DHT22;26000;48.304;13.626;2023-03-11T13:45:53;6.20;97.10
40291;DHT22;26000;48.304;13.626;2023-03-11T13:48:27;6.20;97.00
40291;DHT22;26000;48.304;13.626;2023-03-11T13:53:29;6.20;97.20
40291;DHT22;26000;48.304;13.626;2023-03-11T13:55:55;6.20;97.20
40291;DHT22;26000;48.304;13.626;2023-03-11T13:58:25;6.20;97.00
40291;DHT22;26000;48.304;13.626;2023-03-11T14:00:54;6.10;97.00
40291;DHT22;26000;48.304;13.626;2023-03-11T14:03:21;6.00;96.60
40291;DHT22;26000;48.304;13.626;2023-03-11T14:06:00;6.00;97.00
40291;DHT22;26000;48.304;13.626;2023-03-11T14:08:32;6.00;97.10
40291;DHT22;26000;48.304;13.626;2023-03-11T14:13:37;6.10;98.00
40291;DHT22;26000;48.304;13.626;2023-03-11T14:16:07;6.00;97.00
40291;DHT22;26000;48.304;13.626;2023-03-11T14:18:38;6.10;97.50
40291;DHT22;26000;48.304;13.626;2023-03-11T14:21:09;6.10;98.10
40291;DHT22;26000;48.304;13.626;2023-03-11T14:23:46;6.20;98.20
40291;DHT22;26000;48.304;13.626;2023-03-11T14:26:16;6.30;97.10
40291;DHT22;26000;48.304;13.626;2023-03-11T14:28:47;6.30;97.20
40291;DHT22;26000;48.304;13.626;2023-03-11T14:31:34;6.40;97.40
40291;DHT22;26000;48.304;13.626;2023-03-11T14:34:01;6.30;96.90
40291;DHT22;26000;48.304;13.626;2023-03-11T14:36:55;6.20;96.50
40291;DHT22;26000;48.304;13.626;2023-03-11T14:39:31;6.30;96.60
40291;DHT22;26000;48.304;13.626;2023-03-11T14:44:35;6.10;96.90
40291;DHT22;26000;48.304;13.626;2023-03-11T14:49:32;6.20;96.70
40291;DHT22;26000;48.304;13.626;2023-03-11T14:52:02;6.40;97.30
40291;DHT22;26000;48.304;13.626;2023-03-11T14:54:31;6.50;96.90
40291;DHT22;26000;48.304;13.626;2023-03-11T14:57:49;6.60;96.40
40291;DHT22;26000;48.304;13.626;2023-03-11T14:59:51;6.60;96.40
40291;DHT22;26000;48.304;13.626;2023-03-11T15:02:42;6.60;96.10
40291;DHT22;26000;48.304;13.626;2023-03-11T15:05:18;6.60;96.00
40291;DHT22;26000;48.304;13.626;2023-03-11T15:07:46;6.60;95.90
40291;DHT22;26000;48.304;13.626;2023-03-11T15:10:13;6.50;95.90
40291;DHT22;26000;48.304;13.626;2023-03-11T15:12:41;6.50;95.70
40291;DHT22;26000;48.304;13.626;2023-03-11T15:15:21;6.30;95.90
40291;DHT22;26000;48.304;13.626;2023-03-11T15:17:59;6.30;95.40
40291;DHT22;26000;48.304;13.626;2023-03-11T15:22:54;6.20;95.00
40291;DHT22;26000;48.304;13.626;2023-03-11T15:25:25;6.10;95.20
40291;DHT22;26000;48.304;13.626;2023-03-11T15:27:51;6.20;95.10
40291;DHT22;26000;48.304;13.626;2023-03-11T15:32:50;6.20;95.40
40291;DHT22;26000;48.304;13.626;2023-03-11T15:35:20;6.10;95.20
40291;DHT22;26000;48.304;13.626;2023-03-11T15:37:48;6.10;95.60
40291;DHT22;26000;48.304;13.626;2023-03-11T15:40:24;6.10;95.90
40291;DHT22;26000;48.304;13.626;2023-03-11T15:45:48;5.90;96.20
40291;DHT22;26000;48.304;13.626;2023-03-11T15:48:14;5.80;96.80
40291;DHT22;26000;48.304;13.626;2023-03-11T15:50:57;5.80;96.90
40291;DHT22;26000;48.304;13.626;2023-03-11T15:53:25;5.90;96.40
40291;DHT22;26000;48.304;13.626;2023-03-11T15:55:53;5.80;96.30
40291;DHT22;26000;48.304;13.626;2023-03-11T15:58:19;5.90;96.10
40291;DHT22;26000;48.304;13.626;2023-03-11T16:00:48;5.80;96.60
40291;DHT22;26000;48.304;13.626;2023-03-11T16:03:14;5.90;96.40
40291;DHT22;26000;48.304;13.626;2023-03-11T16:05:40;5.90;96.50
40291;DHT22;26000;48.304;13.626;2023-03-11T16:08:05;5.80;96.60
40291;DHT22;26000;48.304;13.626;2023-03-11T16:10:31;5.80;96.30
40291;DHT22;26000;48.304;13.626;2023-03-11T16:12:56;5.80;96.20
40291;DHT22;26000;48.304;13.626;2023-03-11T16:15:31;5.80;96.40
40291;DHT22;26000;48.304;13.626;2023-03-11T16:17:58;5.80;96.30
40291;DHT22;26000;48.304;13.626;2023-03-11T16:20:27;5.70;96.30
40291;DHT22;26000;48.304;13.626;2023-03-11T16:22:55;5.70;96.40
40291;DHT22;26000;48.304;13.626;2023-03-11T16:25:26;5.70;96.50
40291;DHT22;26000;48.304;13.626;2023-03-11T16:27:54;5.80;96.30
40291;DHT22;26000;48.304;13.626;2023-03-11T16:30:22;5.80;96.00
40291;DHT22;26000;48.304;13.626;2023-03-11T16:32:48;5.70;96.30
40291;DHT22;26000;48.304;13.626;2023-03-11T16:35:13;5.70;96.40
40291;DHT22;26000;48.304;13.626;2023-03-11T16:37:39;5.70;96.50
40291;DHT22;26000;48.304;13.626;2023-03-11T16:40:11;5.70;96.10
40291;DHT22;26000;48.304;13.626;2023-03-11T16:42:37;5.70;96.50
40291;DHT22;26000;48.304;13.626;2023-03-11T16:45:03;5.70;96.40
40291;DHT22;26000;48.304;13.626;2023-03-11T16:47:28;5.60;96.30
40291;DHT22;26000;48.304;13.626;2023-03-11T16:49:54;5.60;96.40
40291;DHT22;26000;48.304;13.626;2023-03-11T16:52:20;5.60;96.30
40291;DHT22;26000;48.304;13.626;2023-03-11T16:54:47;5.60;96.30
40291;DHT22;26000;48.304;13.626;2023-03-11T16:57:13;5.70;96.10
40291;DHT22;26000;48.304;13.626;2023-03-11T16:59:38;5.60;96.30
40291;DHT22;26000;48.304;13.626;2023-03-11T17:02:04;5.60;96.00
40291;DHT22;26000;48.304;13.626;2023-03-11T17:04:30;5.60;96.30
40291;DHT22;26000;48.304;13.626;2023-03-11T17:06:55;5.60;96.40
40291;DHT22;26000;48.304;13.626;2023-03-11T17:09:21;5.40;96.50
40291;DHT22;26000;48.304;13.626;2023-03-11T17:11:49;5.40;96.70
40291;DHT22;26000;48.304;13.626;2023-03-11T17:14:16;5.40;96.80
40291;DHT22;26000;48.304;13.626;2023-03-11T17:16:42;5.40;96.80
40291;DHT22;26000;48.304;13.626;2023-03-11T17:19:07;5.30;97.00
40291;DHT22;26000;48.304;13.626;2023-03-11T17:21:33;5.30;97.10
40291;DHT22;26000;48.304;13.626;2023-03-11T17:23:59;5.20;97.20
40291;DHT22;26000;48.304;13.626;2023-03-11T17:26:25;5.10;97.50
40291;DHT22;26000;48.304;13.626;2023-03-11T17:28:55;5.10;97.70
40291;DHT22;26000;48.304;13.626;2023-03-11T17:31:21;5.00;97.60
40291;DHT22;26000;48.304;13.626;2023-03-11T17:33:47;5.00;97.30
40291;DHT22;26000;48.304;13.626;2023-03-11T17:36:15;5.10;97.50
40291;DHT22;26000;48.304;13.626;2023-03-11T17:38:45;5.00;97.40
40291;DHT22;26000;48.304;13.626;2023-03-11T17:41:15;5.00;97.50
40291;DHT22;26000;48.304;13.626;2023-03-11T17:43:41;5.00;97.70
40291;DHT22;26000;48.304;13.626;2023-03-11T17:46:12;5.00;98.00